Time;durP1;ratioP1;P1;durP2;ratioP2;P2;SDS_P1;SDS_P2;PMS_P1;PMS_P2;Temp;Humidity;BMP_temperature;BMP_pressure;BME280_temperature;BME280_humidity;BME280_pressure;Samples;Min_cycle;Max_cycle;Signal;HPM_P1;HPM_P2
2022/04/03 00:00:54;;;;;;;;;;;;;;;;;;2066685;28;19984;-78
2022/04/03 00:01:54;;;;;;;;;;;;;;;;;;2066719;28;19972;-78
2022/04/03 00:02:57;;;;;;;;;;;;;;;;;;2058156;28;19914;-78
2022/04/03 00:04:00;;;;;;;;;;;;;;;;;;2058589;28;19917;-78
2022/04/03 00:05:00;;;;;;;;;;;;;;;;;;2066516;28;19964;-78
2022/04/03 00:06:00;;;;;;;;;;;;;;;;;;2066591;28;20287;-78
2022/04/03 00:07:02;;;;;;;;;;;;;;;;;;2066656;28;19944;-78
2022/04/03 00:08:04;;;;;;;;;;;;;;;;;;2066563;28;19913;-78
2022/04/03 00:09:05;;;;;;;;;;;;;;;;;;2066481;28;20371;-78
2022/04/03 00:10:05;;;;;;;;;;;;;;;;;;2057817;28;20018;-79
2022/04/03 00:11:05;;;;;;;;;;;;;;;;;;2058203;28;19914;-78
2022/04/03 00:12:06;;;;;;;;;;;;;;;;;;2066492;28;19945;-78
2022/04/03 00:13:07;;;;;;;;;;;;;;;;;;2057954;28;19914;-78
2022/04/03 00:14:07;;;;;;;;;;;;;;;;;;2058120;28;20392;-79
2022/04/03 00:15:14;;;;;;;;;;;;;;;;;;2058028;28;20397;-77
2022/04/03 00:16:18;;;;;;;;;;;;;;;;;;2058687;28;19918;-79
2022/04/03 00:17:19;;;;;;;;;;;;;;;;;;2066457;28;20279;-79
2022/04/03 00:18:22;;;;;;;;;;;;;;;;;;2057911;28;19925;-78
2022/04/03 00:19:22;;;;;;;;;;;;;;;;;;2058195;28;19914;-78
2022/04/03 00:20:23;;;;;;;;;;;;;;;;;;2057927;28;20387;-79
2022/04/03 00:21:26;;;;;;;;;;;;;;;;;;2058132;28;19914;-79
2022/04/03 00:22:29;;;;;;;;;;;;;;;;;;2066637;28;19914;-79
2022/04/03 00:23:29;;;;;;;;;;;;;;;;;;2066741;28;20260;-79
2022/04/03 00:24:31;;;;;;;;;;;;;;;;;;2057950;28;19921;-78
2022/04/03 00:25:32;;;;;;;;;;;;;;;;;;2058420;28;19914;-78
2022/04/03 00:26:32;;;;;;;;;;;;;;;;;;2057985;28;19918;-79
2022/04/03 00:27:33;;;;;;;;;;;;;;;;;;2058018;28;19975;-79
2022/04/03 00:28:33;;;;;;;;;;;;;;;;;;2066578;28;20049;-79
2022/04/03 00:29:33;;;;;;;;;;;;;;;;;;2066472;28;20372;-78
2022/04/03 00:30:37;;;;;;;;;;;;;;;;;;2066380;28;20275;-78
2022/04/03 00:31:37;;;;;;;;;;;;;;;;;;2066638;28;20346;-78
2022/04/03 00:32:38;;;;;;;;;;;;;;;;;;2066457;28;19918;-78
2022/04/03 00:33:39;;;;;;;;;;;;;;;;;;2066578;28;20198;-78
2022/04/03 00:34:39;;;;;;;;;;;;;;;;;;2066499;28;19945;-78
2022/04/03 00:35:43;;;;;;;;;;;;;;;;;;2066156;28;19993;-78
2022/04/03 00:36:43;;;;;;;;;;;;;;;;;;2057720;28;19953;-78
2022/04/03 00:37:43;;;;;;;;;;;;;;;;;;2057897;28;19977;-78
2022/04/03 00:38:46;;;;;;;;;;;;;;;;;;2057881;28;20389;-78
2022/04/03 00:39:46;;;;;;;;;;;;;;;;;;2058053;28;19914;-78
2022/04/03 00:40:47;;;;;;;;;;;;;;;;;;2066240;28;20357;-78
2022/04/03 00:41:47;;;;;;;;;;;;;;;;;;2066425;28;19921;-77
2022/04/03 00:42:50;;;;;;;;;;;;;;;;;;2066419;28;19917;-77
2022/04/03 00:43:53;;;;;;;;;;;;;;;;;;2066351;28;19914;-77
2022/04/03 00:44:53;;;;;;;;;;;;;;;;;;2066381;28;19972;-76
2022/04/03 00:45:54;;;;;;;;;;;;;;;;;;2066288;28;20409;-78
2022/04/03 00:46:58;;;;;;;;;;;;;;;;;;2057895;28;20398;-78
2022/04/03 00:48:01;;;;;;;;;;;;;;;;;;2058372;28;19950;-79
2022/04/03 00:49:02;;;;;;;;;;;;;;;;;;2066361;28;19914;-77
2022/04/03 00:50:03;;;;;;;;;;;;;;;;;;2066307;28;20012;-78
2022/04/03 00:51:03;;;;;;;;;;;;;;;;;;2066394;28;19913;-77
2022/04/03 00:52:08;;;;;;;;;;;;;;;;;;2066356;28;19960;-77
2022/04/03 00:53:08;;;;;;;;;;;;;;;;;;2066296;28;20354;-77
2022/04/03 00:54:09;;;;;;;;;;;;;;;;;;2066399;28;19962;-77
2022/04/03 00:55:09;;;;;;;;;;;;;;;;;;2066280;28;19918;-77
2022/04/03 00:56:10;;;;;;;;;;;;;;;;;;2066105;28;20278;-79
2022/04/03 00:57:12;;;;;;;;;;;;;;;;;;2066359;28;19982;-76
2022/04/03 00:58:13;;;;;;;;;;;;;;;;;;2066097;28;19920;-77
2022/04/03 00:59:14;;;;;;;;;;;;;;;;;;2066352;28;20411;-76
2022/04/03 01:00:14;;;;;;;;;;;;;;;;;;2066213;28;19968;-79
2022/04/03 01:01:15;;;;;;;;;;;;;;;;;;2066187;28;19918;-79
2022/04/03 01:02:15;;;;;;;;;;;;;;;;;;2066143;28;20515;-79
2022/04/03 01:03:16;;;;;;;;;;;;;;;;;;2066214;28;19957;-79
2022/04/03 01:04:19;;;;;;;;;;;;;;;;;;2066265;28;19918;-79
2022/04/03 01:05:23;;;;;;;;;;;;;;;;;;2066229;28;19925;-77
2022/04/03 01:06:23;;;;;;;;;;;;;;;;;;2066223;28;20363;-78
2022/04/03 01:07:24;;;;;;;;;;;;;;;;;;2066208;28;19914;-79
2022/04/03 01:08:27;;;;;;;;;;;;;;;;;;2066135;28;19914;-77
2022/04/03 01:09:27;;;;;;;;;;;;;;;;;;2066246;28;20563;-77
2022/04/03 01:10:27;;;;;;;;;;;;;;;;;;2066137;28;19943;-78
2022/04/03 01:11:30;;;;;;;;;;;;;;;;;;2066210;28;19925;-78
2022/04/03 01:12:31;;;;;;;;;;;;;;;;;;2066276;28;19925;-78
2022/04/03 01:13:31;;;;;;;;;;;;;;;;;;2066248;28;19949;-78
2022/04/03 01:14:41;;;;;;;;;;;;;;;;;;2066178;28;19921;-77
2022/04/03 01:15:42;;;;;;;;;;;;;;;;;;2066168;28;20342;-77
2022/04/03 01:16:42;;;;;;;;;;;;;;;;;;2066085;28;19914;-77
2022/04/03 01:17:45;;;;;;;;;;;;;;;;;;2066120;28;20415;-79
2022/04/03 01:18:49;;;;;;;;;;;;;;;;;;2057571;28;19914;-79
2022/04/03 01:19:49;;;;;;;;;;;;;;;;;;2058142;28;19918;-79
2022/04/03 01:20:52;;;;;;;;;;;;;;;;;;2057476;28;19945;-79
2022/04/03 01:21:53;;;;;;;;;;;;;;;;;;2057982;28;19925;-79
2022/04/03 01:22:53;;;;;;;;;;;;;;;;;;2065996;28;19948;-77
2022/04/03 01:23:55;;;;;;;;;;;;;;;;;;2066077;28;20287;-77
2022/04/03 01:24:58;;;;;;;;;;;;;;;;;;2057584;28;19926;-77
2022/04/03 01:25:58;;;;;;;;;;;;;;;;;;2057757;28;19914;-77
2022/04/03 01:26:59;;;;;;;;;;;;;;;;;;2066180;28;20000;-77
2022/04/03 01:27:59;;;;;;;;;;;;;;;;;;2057552;28;20001;-77
2022/04/03 01:29:00;;;;;;;;;;;;;;;;;;2057591;28;19925;-78
2022/04/03 01:30:00;;;;;;;;;;;;;;;;;;2057601;28;19992;-77
2022/04/03 01:31:00;;;;;;;;;;;;;;;;;;2057386;28;20246;-77
2022/04/03 01:32:01;;;;;;;;;;;;;;;;;;2057437;28;19953;-77
2022/04/03 01:33:01;;;;;;;;;;;;;;;;;;2049556;29;19993;-77
2022/04/03 01:34:01;;;;;;;;;;;;;;;;;;2057557;28;20195;-78
2022/04/03 01:35:02;;;;;;;;;;;;;;;;;;2065963;28;19914;-78
2022/04/03 01:36:05;;;;;;;;;;;;;;;;;;2057212;28;20430;-77
2022/04/03 01:37:05;;;;;;;;;;;;;;;;;;2049561;28;19914;-78
2022/04/03 01:38:06;;;;;;;;;;;;;;;;;;2057508;28;20371;-79
2022/04/03 01:39:06;;;;;;;;;;;;;;;;;;2065678;28;20049;-79
2022/04/03 01:40:08;;;;;;;;;;;;;;;;;;2065878;28;20005;-77
2022/04/03 01:41:08;;;;;;;;;;;;;;;;;;2057400;28;20430;-77
2022/04/03 01:42:09;;;;;;;;;;;;;;;;;;2057483;28;19988;-77
2022/04/03 01:43:10;;;;;;;;;;;;;;;;;;2066015;28;20331;-78
2022/04/03 01:44:13;;;;;;;;;;;;;;;;;;2065875;28;20346;-79
2022/04/03 01:45:16;;;;;;;;;;;;;;;;;;2065960;28;19914;-76
2022/04/03 01:46:16;;;;;;;;;;;;;;;;;;2065942;28;20271;-79
2022/04/03 01:47:17;;;;;;;;;;;;;;;;;;2065957;28;19953;-78
2022/04/03 01:48:18;;;;;;;;;;;;;;;;;;2065854;28;19918;-77
2022/04/03 01:49:18;;;;;;;;;;;;;;;;;;2065917;28;19921;-79
2022/04/03 01:50:18;;;;;;;;;;;;;;;;;;2065955;28;19914;-77
2022/04/03 01:51:19;;;;;;;;;;;;;;;;;;2057338;28;19914;-77
2022/04/03 01:52:19;;;;;;;;;;;;;;;;;;2057409;28;19918;-77
2022/04/03 01:53:19;;;;;;;;;;;;;;;;;;2065341;28;19924;-77
2022/04/03 01:54:20;;;;;;;;;;;;;;;;;;2065428;28;19918;-77
2022/04/03 01:55:20;;;;;;;;;;;;;;;;;;2065924;28;20384;-79
2022/04/03 01:56:20;;;;;;;;;;;;;;;;;;2065782;28;19914;-79
2022/04/03 01:57:21;;;;;;;;;;;;;;;;;;2057220;28;19914;-79
2022/04/03 01:58:21;;;;;;;;;;;;;;;;;;2057266;28;19958;-78
2022/04/03 01:59:21;;;;;;;;;;;;;;;;;;2049414;29;19950;-78
2022/04/03 02:00:24;;;;;;;;;;;;;;;;;;2057148;28;19922;-77
2022/04/03 02:01:24;;;;;;;;;;;;;;;;;;2057223;28;19914;-77
2022/04/03 02:02:25;;;;;;;;;;;;;;;;;;2057386;28;19925;-77
2022/04/03 02:03:26;;;;;;;;;;;;;;;;;;2057223;28;20008;-78
2022/04/03 02:04:27;;;;;;;;;;;;;;;;;;2057381;28;20004;-78
2022/04/03 02:05:27;;;;;;;;;;;;;;;;;;2065598;28;20351;-77
2022/04/03 02:06:27;;;;;;;;;;;;;;;;;;2057229;28;20402;-77
2022/04/03 02:07:31;;;;;;;;;;;;;;;;;;2049010;28;19962;-77
2022/04/03 02:08:31;;;;;;;;;;;;;;;;;;2057613;28;20408;-77
2022/04/03 02:09:31;;;;;;;;;;;;;;;;;;2065410;28;20077;-77
2022/04/03 02:10:34;;;;;;;;;;;;;;;;;;2065404;28;19913;-78
2022/04/03 02:11:35;;;;;;;;;;;;;;;;;;2065805;28;20394;-77
2022/04/03 02:12:53;;;;;;;;;;;;;;;;;;2065639;28;19914;-78
2022/04/03 02:14:01;;;;;;;;;;;;;;;;;;2065703;28;19917;-78
2022/04/03 02:15:19;;;;;;;;;;;;;;;;;;2057173;28;19914;-77
2022/04/03 02:16:25;;;;;;;;;;;;;;;;;;2059603;28;20348;-78
2022/04/03 02:17:26;;;;;;;;;;;;;;;;;;2065592;28;19992;-78
2022/04/03 02:18:36;;;;;;;;;;;;;;;;;;2065666;28;19914;-78
2022/04/03 02:20:57;;;;;;;;;;;;;;;;;;2065699;28;19986;-78
2022/04/03 02:22:03;;;;;;;;;;;;;;;;;;2065650;28;20051;-78
2022/04/03 02:23:06;;;;;;;;;;;;;;;;;;2068095;28;19984;-78
2022/04/03 02:24:08;;;;;;;;;;;;;;;;;;2065725;28;20072;-78
2022/04/03 02:25:17;;;;;;;;;;;;;;;;;;2056827;28;19914;-78
2022/04/03 02:26:20;;;;;;;;;;;;;;;;;;2049985;28;19922;-77
2022/04/03 02:27:28;;;;;;;;;;;;;;;;;;2057437;28;20275;-77
2022/04/03 02:28:29;;;;;;;;;;;;;;;;;;2057076;28;19918;-77
2022/04/03 02:29:35;;;;;;;;;;;;;;;;;;2048972;28;19914;-77
2022/04/03 02:30:54;;;;;;;;;;;;;;;;;;;;;
2022/04/03 02:31:58;;;;;;;;;;;;;;;;;;2065523;28;20343;-77
2022/04/03 02:33:11;;;;;;;;;;;;;;;;;;2057136;28;20268;-78
2022/04/03 02:34:23;;;;;;;;;;;;;;;;;;2058726;28;19925;-78
2022/04/03 02:35:34;;;;;;;;;;;;;;;;;;2065480;28;19921;-78
2022/04/03 02:36:40;;;;;;;;;;;;;;;;;;2068309;28;19913;-78
2022/04/03 02:37:45;;;;;;;;;;;;;;;;;;2065570;28;19914;-76
2022/04/03 02:38:45;;;;;;;;;;;;;;;;;;2065560;28;19945;-77
2022/04/03 02:39:48;;;;;;;;;;;;;;;;;;2065493;28;19914;-79
2022/04/03 02:40:48;;;;;;;;;;;;;;;;;;2065650;28;20323;-77
2022/04/03 02:41:49;;;;;;;;;;;;;;;;;;2056803;28;19953;-77
2022/04/03 02:42:52;;;;;;;;;;;;;;;;;;2057034;28;19914;-78
2022/04/03 02:43:52;;;;;;;;;;;;;;;;;;2065512;28;20287;-78
2022/04/03 02:44:53;;;;;;;;;;;;;;;;;;2065548;28;20282;-78
2022/04/03 02:45:53;;;;;;;;;;;;;;;;;;2065508;28;20025;-78
2022/04/03 02:47:03;;;;;;;;;;;;;;;;;;2065407;28;20279;-78
2022/04/03 02:48:08;;;;;;;;;;;;;;;;;;2065380;28;19913;-78
2022/04/03 02:49:12;;;;;;;;;;;;;;;;;;2065509;28;19925;-78
2022/04/03 02:50:16;;;;;;;;;;;;;;;;;;2065250;28;19956;-78
2022/04/03 02:51:19;;;;;;;;;;;;;;;;;;2065519;28;19913;-78
2022/04/03 02:52:29;;;;;;;;;;;;;;;;;;2065378;28;19914;-78
2022/04/03 02:53:45;;;;;;;;;;;;;;;;;;2056984;28;19914;-78
2022/04/03 02:54:56;;;;;;;;;;;;;;;;;;2060699;28;20451;-78
2022/04/03 02:55:59;;;;;;;;;;;;;;;;;;2066626;28;20385;-78
2022/04/03 02:57:10;;;;;;;;;;;;;;;;;;2056854;28;19945;-77
2022/04/03 02:58:13;;;;;;;;;;;;;;;;;;2061052;28;19924;-77
2022/04/03 02:59:16;;;;;;;;;;;;;;;;;;2065330;28;20256;-78
2022/04/03 03:00:17;;;;;;;;;;;;;;;;;;2057044;28;19915;-78
2022/04/03 03:01:17;;;;;;;;;;;;;;;;;;2057028;28;19914;-78
2022/04/03 03:02:20;;;;;;;;;;;;;;;;;;2056461;28;20343;-77
2022/04/03 03:03:23;;;;;;;;;;;;;;;;;;2056749;28;19914;-77
2022/04/03 03:04:35;;;;;;;;;;;;;;;;;;2049232;28;19974;-79
2022/04/03 03:05:41;;;;;;;;;;;;;;;;;;2058987;28;19914;-79
2022/04/03 03:06:41;;;;;;;;;;;;;;;;;;2068185;28;19925;-76
2022/04/03 03:07:42;;;;;;;;;;;;;;;;;;2065292;28;19914;-77
2022/04/03 03:08:43;;;;;;;;;;;;;;;;;;2065550;28;20378;-77
2022/04/03 03:09:43;;;;;;;;;;;;;;;;;;2065030;28;19964;-77
2022/04/03 03:10:43;;;;;;;;;;;;;;;;;;2056749;28;19922;-77
2022/04/03 03:11:44;;;;;;;;;;;;;;;;;;2056935;28;19978;-77
2022/04/03 03:12:47;;;;;;;;;;;;;;;;;;2056722;28;20267;-77
2022/04/03 03:13:49;;;;;;;;;;;;;;;;;;2056848;28;19950;-77
2022/04/03 03:14:50;;;;;;;;;;;;;;;;;;2049123;28;19914;-78
2022/04/03 03:15:50;;;;;;;;;;;;;;;;;;2056755;28;20275;-77
2022/04/03 03:16:50;;;;;;;;;;;;;;;;;;2056780;28;19914;-76
2022/04/03 03:17:51;;;;;;;;;;;;;;;;;;2056579;28;19918;-77
2022/04/03 03:18:51;;;;;;;;;;;;;;;;;;2056589;28;19918;-79
2022/04/03 03:19:58;;;;;;;;;;;;;;;;;;2056761;28;19934;-79
2022/04/03 03:20:58;;;;;;;;;;;;;;;;;;2056758;28;20507;-78
2022/04/03 03:21:58;;;;;;;;;;;;;;;;;;2056758;28;19922;-79
2022/04/03 03:23:00;;;;;;;;;;;;;;;;;;2064643;28;20282;-79
2022/04/03 03:24:00;;;;;;;;;;;;;;;;;;2064736;28;20070;-79
2022/04/03 03:25:04;;;;;;;;;;;;;;;;;;2065317;28;20041;-77
2022/04/03 03:26:04;;;;;;;;;;;;;;;;;;2064991;28;20347;-77
2022/04/03 03:27:12;;;;;;;;;;;;;;;;;;2056839;28;20045;-78
2022/04/03 03:28:12;;;;;;;;;;;;;;;;;;2056905;28;19914;-77
2022/04/03 03:29:18;;;;;;;;;;;;;;;;;;2056961;28;19914;-77
2022/04/03 03:30:20;;;;;;;;;;;;;;;;;;2056731;28;19977;-77
2022/04/03 03:31:20;;;;;;;;;;;;;;;;;;2056940;28;20023;-77
2022/04/03 03:32:21;;;;;;;;;;;;;;;;;;2065296;28;19921;-77
2022/04/03 03:33:23;;;;;;;;;;;;;;;;;;2065013;28;19953;-77
2022/04/03 03:34:27;;;;;;;;;;;;;;;;;;2065188;28;19929;-77
2022/04/03 03:35:30;;;;;;;;;;;;;;;;;;2065285;28;20355;-77
2022/04/03 03:36:30;;;;;;;;;;;;;;;;;;2065050;28;19914;-77
2022/04/03 03:37:30;;;;;;;;;;;;;;;;;;2056687;28;19984;-77
2022/04/03 03:38:31;;;;;;;;;;;;;;;;;;2056654;28;19914;-77
2022/04/03 03:39:31;;;;;;;;;;;;;;;;;;2056275;28;19914;-77
2022/04/03 03:40:31;;;;;;;;;;;;;;;;;;2056697;28;19915;-77
2022/04/03 03:41:32;;;;;;;;;;;;;;;;;;2065594;28;19925;-79
2022/04/03 03:42:33;;;;;;;;;;;;;;;;;;2065263;28;19925;-78
2022/04/03 03:43:33;;;;;;;;;;;;;;;;;;2065428;28;20118;-78
2022/04/03 03:44:33;;;;;;;;;;;;;;;;;;2056991;28;19918;-79
2022/04/03 03:45:36;;;;;;;;;;;;;;;;;;2056863;28;20442;-79
2022/04/03 03:46:39;;;;;;;;;;;;;;;;;;2049155;28;19962;-78
2022/04/03 03:47:42;;;;;;;;;;;;;;;;;;2049170;28;19914;-79
2022/04/03 03:48:42;;;;;;;;;;;;;;;;;;2057067;28;20291;-79
2022/04/03 03:49:45;;;;;;;;;;;;;;;;;;2065257;28;19967;-79
2022/04/03 03:50:45;;;;;;;;;;;;;;;;;;2065355;28;19946;-78
2022/04/03 03:51:46;;;;;;;;;;;;;;;;;;2065124;28;19914;-79
2022/04/03 03:52:46;;;;;;;;;;;;;;;;;;2064949;28;19921;-79
2022/04/03 03:53:47;;;;;;;;;;;;;;;;;;2065001;28;19920;-79
2022/04/03 03:54:52;;;;;;;;;;;;;;;;;;2065150;28;19917;-79
2022/04/03 03:56:02;;;;;;;;;;;;;;;;;;2065358;28;19918;-79
2022/04/03 03:57:03;;;;;;;;;;;;;;;;;;2067824;28;19914;-79
2022/04/03 03:58:04;;;;;;;;;;;;;;;;;;2056596;28;19953;-78
2022/04/03 03:59:08;;;;;;;;;;;;;;;;;;2048570;28;19945;-79
2022/04/03 04:00:09;;;;;;;;;;;;;;;;;;2057114;28;20017;-78
2022/04/03 04:01:09;;;;;;;;;;;;;;;;;;2064825;28;19925;-78
2022/04/03 04:02:09;;;;;;;;;;;;;;;;;;2064842;28;19969;-77
2022/04/03 04:03:10;;;;;;;;;;;;;;;;;;2065195;28;19932;-77
2022/04/03 04:04:10;;;;;;;;;;;;;;;;;;2064975;28;19914;-77
2022/04/03 04:05:10;;;;;;;;;;;;;;;;;;2065133;28;20260;-77
2022/04/03 04:06:11;;;;;;;;;;;;;;;;;;2065160;28;20350;-78
2022/04/03 04:07:11;;;;;;;;;;;;;;;;;;2056584;28;19925;-77
2022/04/03 04:08:11;;;;;;;;;;;;;;;;;;2056446;28;19978;-78
2022/04/03 04:09:12;;;;;;;;;;;;;;;;;;2056597;28;19926;-78
2022/04/03 04:10:14;;;;;;;;;;;;;;;;;;2056598;28;20378;-79
2022/04/03 04:11:14;;;;;;;;;;;;;;;;;;2056644;28;19989;-80
2022/04/03 04:12:15;;;;;;;;;;;;;;;;;;2048491;29;20373;-78
2022/04/03 04:13:22;;;;;;;;;;;;;;;;;;2056601;28;19974;-76
2022/04/03 04:14:22;;;;;;;;;;;;;;;;;;2056573;28;20383;-78
2022/04/03 04:15:23;;;;;;;;;;;;;;;;;;2048377;29;19919;-78
2022/04/03 04:16:26;;;;;;;;;;;;;;;;;;2056558;28;20372;-78
2022/04/03 04:17:26;;;;;;;;;;;;;;;;;;2055963;28;19918;-77
2022/04/03 04:18:27;;;;;;;;;;;;;;;;;;2056534;28;19958;-77
2022/04/03 04:19:28;;;;;;;;;;;;;;;;;;2065068;28;20333;-79
2022/04/03 04:20:32;;;;;;;;;;;;;;;;;;2056517;28;19981;-79
2022/04/03 04:21:32;;;;;;;;;;;;;;;;;;2056776;28;19914;-78
2022/04/03 04:22:33;;;;;;;;;;;;;;;;;;2056675;28;20276;-78
2022/04/03 04:23:33;;;;;;;;;;;;;;;;;;2065055;28;20012;-77
2022/04/03 04:24:34;;;;;;;;;;;;;;;;;;2065095;28;19913;-78
2022/04/03 04:25:34;;;;;;;;;;;;;;;;;;2065161;28;19984;-78
2022/04/03 04:26:37;;;;;;;;;;;;;;;;;;2064988;28;20032;-79
2022/04/03 04:27:40;;;;;;;;;;;;;;;;;;2065107;28;19914;-79
2022/04/03 04:28:40;;;;;;;;;;;;;;;;;;2065061;28;20443;-79
2022/04/03 04:29:40;;;;;;;;;;;;;;;;;;2065134;28;19918;-79
2022/04/03 04:30:41;;;;;;;;;;;;;;;;;;2065094;28;19936;-79
2022/04/03 04:31:44;;;;;;;;;;;;;;;;;;2065026;28;20354;-79
2022/04/03 04:32:45;;;;;;;;;;;;;;;;;;2065120;28;19971;-78
2022/04/03 04:33:45;;;;;;;;;;;;;;;;;;2066467;28;19913;-79
2022/04/03 04:34:45;;;;;;;;;;;;;;;;;;2066592;28;20271;-79
2022/04/03 04:35:46;;;;;;;;;;;;;;;;;;2066343;28;19940;-79
2022/04/03 04:36:46;;;;;;;;;;;;;;;;;;2057988;28;19969;-78
2022/04/03 04:37:50;;;;;;;;;;;;;;;;;;2057949;28;20366;-79
2022/04/03 04:38:51;;;;;;;;;;;;;;;;;;2066512;28;19914;-78
2022/04/03 04:39:52;;;;;;;;;;;;;;;;;;2057838;28;19952;-78
2022/04/03 04:40:52;;;;;;;;;;;;;;;;;;2057972;28;19913;-78
2022/04/03 04:41:53;;;;;;;;;;;;;;;;;;2066043;28;20115;-78
2022/04/03 04:42:59;;;;;;;;;;;;;;;;;;2057830;28;19915;-78
2022/04/03 04:43:59;;;;;;;;;;;;;;;;;;2050573;28;19926;-79
2022/04/03 04:45:02;;;;;;;;;;;;;;;;;;2058050;28;19918;-78
2022/04/03 04:46:03;;;;;;;;;;;;;;;;;;2066318;28;19914;-79
2022/04/03 04:47:03;;;;;;;;;;;;;;;;;;2066456;28;20385;-77
2022/04/03 04:48:04;;;;;;;;;;;;;;;;;;2066373;28;19914;-78
2022/04/03 04:49:04;;;;;;;;;;;;;;;;;;2066739;28;19918;-78
2022/04/03 04:50:14;;;;;;;;;;;;;;;;;;2066344;28;20382;-77
2022/04/03 04:51:14;;;;;;;;;;;;;;;;;;2066256;28;19922;-88
2022/04/03 04:52:17;;;;;;;;;;;;;;;;;;2066365;28;19914;-89
2022/04/03 04:53:17;;;;;;;;;;;;;;;;;;2067282;28;19914;-88
2022/04/03 04:54:18;;;;;;;;;;;;;;;;;;2067987;28;19917;-88
2022/04/03 04:55:19;;;;;;;;;;;;;;;;;;2067682;28;19922;-87
2022/04/03 04:56:19;;;;;;;;;;;;;;;;;;2058320;28;19914;-89
2022/04/03 04:57:22;;;;;;;;;;;;;;;;;;2060292;28;20310;-90
2022/04/03 04:58:22;;;;;;;;;;;;;;;;;;2059560;28;20392;-89
2022/04/03 04:59:22;;;;;;;;;;;;;;;;;;2058488;28;19965;-88
2022/04/03 05:00:41;;;;;;;;;;;;;;;;;;2058496;28;20394;-88
2022/04/03 05:01:42;;;;;;;;;;;;;;;;;;2058468;28;19914;-88
2022/04/03 05:02:45;;;;;;;;;;;;;;;;;;2058312;28;20401;-88
2022/04/03 05:03:46;;;;;;;;;;;;;;;;;;2066610;28;20444;-88
2022/04/03 05:04:46;;;;;;;;;;;;;;;;;;2058304;28;19925;-88
2022/04/03 05:06:28;;;;;;;;;;;;;;;;;;;;;
2022/04/03 05:09:18;;;;;;;;;;;;;;;;;;2065695;28;19996;-89
2022/04/03 05:10:18;;;;;;;;;;;;;;;;;;2067423;28;20328;-88
2022/04/03 05:11:22;;;;;;;;;;;;;;;;;;2066730;28;20001;-88
2022/04/03 05:12:25;;;;;;;;;;;;;;;;;;2065950;28;20016;-89
2022/04/03 05:13:26;;;;;;;;;;;;;;;;;;2065839;28;20366;-89
2022/04/03 05:14:28;;;;;;;;;;;;;;;;;;2066062;28;19914;-88
2022/04/03 05:15:30;;;;;;;;;;;;;;;;;;2057759;28;19932;-86
2022/04/03 05:18:04;;;;;;;;;;;;;;;;;;2052553;28;19918;-88
2022/04/03 05:19:13;;;;;;;;;;;;;;;;;;2066466;28;20340;-89
2022/04/03 05:20:21;;;;;;;;;;;;;;;;;;2066245;28;19913;-89
2022/04/03 05:21:33;;;;;;;;;;;;;;;;;;2066631;28;19971;-89
2022/04/03 05:22:39;;;;;;;;;;;;;;;;;;2057647;28;19942;-90
2022/04/03 05:23:46;;;;;;;;;;;;;;;;;;2050120;28;19915;-90
2022/04/03 05:24:47;;;;;;;;;;;;;;;;;;2058687;28;19914;-88
2022/04/03 05:25:47;;;;;;;;;;;;;;;;;;2057998;28;19921;-89
2022/04/03 05:26:56;;;;;;;;;;;;;;;;;;2057831;28;19918;-89
2022/04/03 05:30:03;;;;;;;;;;;;;;;;;;2066428;28;19917;-88
2022/04/03 05:31:14;;;;;;;;;;;;;;;;;;2057398;28;19928;-91
2022/04/03 05:32:31;;;;;;;;;;;;;;;;;;2061750;28;19918;-90
2022/04/03 05:33:45;;;;;;;;;;;;;;;;;;;;;
2022/04/03 05:34:53;;;;;;;;;;;;;;;;;;2059880;28;19914;-88
2022/04/03 05:35:57;;;;;;;;;;;;;;;;;;2067159;28;19930;-87
2022/04/03 05:37:06;;;;;;;;;;;;;;;;;;2057619;28;19925;-89
2022/04/03 05:38:15;;;;;;;;;;;;;;;;;;2050675;28;19949;-89
2022/04/03 05:39:18;;;;;;;;;;;;;;;;;;2058727;28;19925;-88
2022/04/03 05:40:21;;;;;;;;;;;;;;;;;;2066127;28;19922;-88
2022/04/03 05:41:31;;;;;;;;;;;;;;;;;;;;;
2022/04/03 05:42:37;;;;;;;;;;;;;;;;;;2065945;28;19914;-88
2022/04/03 05:43:42;;;;;;;;;;;;;;;;;;2068799;28;20375;-90
2022/04/03 05:44:47;;;;;;;;;;;;;;;;;;2067892;28;20367;-88
2022/04/03 05:45:48;;;;;;;;;;;;;;;;;;2057063;28;19914;-90
2022/04/03 05:46:51;;;;;;;;;;;;;;;;;;2057500;28;20342;-87
2022/04/03 05:48:18;;;;;;;;;;;;;;;;;;2056997;28;19978;-88
2022/04/03 05:49:19;;;;;;;;;;;;;;;;;;2052873;28;19918;-88
2022/04/03 05:50:23;;;;;;;;;;;;;;;;;;2057314;28;19914;-87
2022/04/03 05:51:33;;;;;;;;;;;;;;;;;;2066040;28;19945;-88
2022/04/03 05:52:40;;;;;;;;;;;;;;;;;;2067339;28;20000;-88
2022/04/03 05:53:44;;;;;;;;;;;;;;;;;;2057313;28;20013;-87
2022/04/03 05:54:44;;;;;;;;;;;;;;;;;;2057750;28;19977;-87
2022/04/03 05:55:45;;;;;;;;;;;;;;;;;;2065907;28;19928;-88
2022/04/03 05:56:46;;;;;;;;;;;;;;;;;;2057691;28;20080;-85
2022/04/03 05:57:48;;;;;;;;;;;;;;;;;;2059721;28;19921;-87
2022/04/03 05:58:48;;;;;;;;;;;;;;;;;;2060244;28;19949;-87
2022/04/03 05:59:48;;;;;;;;;;;;;;;;;;2058008;28;19914;-88
2022/04/03 06:00:49;;;;;;;;;;;;;;;;;;2066118;28;19984;-89
2022/04/03 06:01:49;;;;;;;;;;;;;;;;;;2066295;28;19913;-90
2022/04/03 06:03:10;;;;;;;;;;;;;;;;;;2057331;28;20340;-89
2022/04/03 06:04:10;;;;;;;;;;;;;;;;;;2059629;28;19918;-90
2022/04/03 06:05:10;;;;;;;;;;;;;;;;;;2065717;28;19949;-87
2022/04/03 06:06:11;;;;;;;;;;;;;;;;;;2065672;28;19976;-88
2022/04/03 06:07:11;;;;;;;;;;;;;;;;;;2065759;28;19913;-90
2022/04/03 06:08:11;;;;;;;;;;;;;;;;;;2065829;28;20036;-89
2022/04/03 06:09:12;;;;;;;;;;;;;;;;;;2057204;28;19914;-89
2022/04/03 06:10:13;;;;;;;;;;;;;;;;;;2057303;28;19960;-90
2022/04/03 06:11:13;;;;;;;;;;;;;;;;;;2065318;28;19922;-88
2022/04/03 06:12:16;;;;;;;;;;;;;;;;;;2065863;28;20375;-88
2022/04/03 06:13:16;;;;;;;;;;;;;;;;;;2065906;28;19981;-89
2022/04/03 06:14:16;;;;;;;;;;;;;;;;;;2057238;28;20428;-89
2022/04/03 06:15:17;;;;;;;;;;;;;;;;;;2057369;28;19958;-89
2022/04/03 06:16:17;;;;;;;;;;;;;;;;;;2065757;28;19914;-89
2022/04/03 06:17:17;;;;;;;;;;;;;;;;;;2057307;28;19993;-88
2022/04/03 06:18:21;;;;;;;;;;;;;;;;;;2057318;28;19925;-88
2022/04/03 06:19:21;;;;;;;;;;;;;;;;;;2057458;28;20351;-89
2022/04/03 06:20:22;;;;;;;;;;;;;;;;;;2065178;28;19914;-89
2022/04/03 06:21:22;;;;;;;;;;;;;;;;;;2065730;28;19921;-89
2022/04/03 06:22:22;;;;;;;;;;;;;;;;;;2065738;28;20291;-88
2022/04/03 06:23:23;;;;;;;;;;;;;;;;;;2065571;28;19922;-87
2022/04/03 06:24:23;;;;;;;;;;;;;;;;;;2065680;28;20326;-88
2022/04/03 06:25:23;;;;;;;;;;;;;;;;;;2065579;28;19917;-88
2022/04/03 06:26:24;;;;;;;;;;;;;;;;;;2065487;28;19914;-88
2022/04/03 06:27:27;;;;;;;;;;;;;;;;;;2056909;28;19914;-88
2022/04/03 06:28:29;;;;;;;;;;;;;;;;;;2057424;28;20005;-87
2022/04/03 06:29:30;;;;;;;;;;;;;;;;;;2065750;28;19925;-88
2022/04/03 06:30:30;;;;;;;;;;;;;;;;;;2065705;28;19913;-89
2022/04/03 06:31:30;;;;;;;;;;;;;;;;;;2065571;28;19913;-88
2022/04/03 06:32:31;;;;;;;;;;;;;;;;;;2064263;28;20282;-88
2022/04/03 06:33:33;;;;;;;;;;;;;;;;;;2057316;28;19914;-87
2022/04/03 06:34:34;;;;;;;;;;;;;;;;;;2058021;28;19914;-87
2022/04/03 06:35:34;;;;;;;;;;;;;;;;;;2057446;28;19929;-87
2022/04/03 06:36:35;;;;;;;;;;;;;;;;;;2057715;28;20378;-88
2022/04/03 06:37:37;;;;;;;;;;;;;;;;;;2065704;28;19953;-88
2022/04/03 06:38:40;;;;;;;;;;;;;;;;;;2057079;28;19918;-88
2022/04/03 06:39:40;;;;;;;;;;;;;;;;;;2057297;28;19938;-88
2022/04/03 06:41:08;;;;;;;;;;;;;;;;;;2056708;28;19913;-89
2022/04/03 06:42:14;;;;;;;;;;;;;;;;;;2056195;28;19941;-88
2022/04/03 06:43:23;;;;;;;;;;;;;;;;;;2065350;28;19917;-87
2022/04/03 06:44:26;;;;;;;;;;;;;;;;;;2056868;28;19914;-88
2022/04/03 06:45:27;;;;;;;;;;;;;;;;;;2049158;28;19914;-88
2022/04/03 06:47:59;;;;;;;;;;;;;;;;;;2051467;28;19913;-87
2022/04/03 06:49:02;;;;;;;;;;;;;;;;;;2067045;28;20278;-88
2022/04/03 06:50:12;;;;;;;;;;;;;;;;;;2065411;28;19914;-88
2022/04/03 06:52:38;;;;;;;;;;;;;;;;;;2040621;29;19934;-88
2022/04/03 06:53:41;;;;;;;;;;;;;;;;;;2062424;28;19929;-88
2022/04/03 06:54:44;;;;;;;;;;;;;;;;;;2065738;28;19920;-86
2022/04/03 06:55:47;;;;;;;;;;;;;;;;;;2059897;28;19981;-87
2022/04/03 06:56:47;;;;;;;;;;;;;;;;;;2059419;28;19914;-87
2022/04/03 06:59:20;;;;;;;;;;;;;;;;;;2051761;28;19966;-88
2022/04/03 07:00:26;;;;;;;;;;;;;;;;;;2065833;28;19917;-89
2022/04/03 07:01:30;;;;;;;;;;;;;;;;;;2067144;28;19914;-88
2022/04/03 07:02:41;;;;;;;;;;;;;;;;;;;;;
2022/04/03 07:04:11;;;;;;;;;;;;;;;;;;2065196;28;19921;-89
2022/04/03 07:05:12;;;;;;;;;;;;;;;;;;2065499;28;19914;-90
2022/04/03 07:06:32;;;;;;;;;;;;;;;;;;;;;
2022/04/03 07:07:40;;;;;;;;;;;;;;;;;;2065471;28;19917;-89
2022/04/03 07:08:43;;;;;;;;;;;;;;;;;;2068213;28;20075;-90
2022/04/03 07:10:07;;;;;;;;;;;;;;;;;;2065377;28;19947;-89
2022/04/03 07:11:07;;;;;;;;;;;;;;;;;;2064489;28;19913;-89
2022/04/03 07:12:08;;;;;;;;;;;;;;;;;;2065303;28;20280;-89
2022/04/03 07:13:17;;;;;;;;;;;;;;;;;;2065417;28;20013;-91
2022/04/03 07:14:22;;;;;;;;;;;;;;;;;;2063704;28;19913;-90
2022/04/03 07:15:25;;;;;;;;;;;;;;;;;;2056967;28;19922;-89
2022/04/03 07:16:25;;;;;;;;;;;;;;;;;;2057289;28;19926;-90
2022/04/03 07:17:33;;;;;;;;;;;;;;;;;;2065225;28;20422;-86
2022/04/03 07:18:36;;;;;;;;;;;;;;;;;;2057469;28;19953;-89
2022/04/03 07:20:03;;;;;;;;;;;;;;;;;;2060321;28;19914;-85
2022/04/03 07:21:11;;;;;;;;;;;;;;;;;;2067621;28;19925;-83
2022/04/03 07:22:14;;;;;;;;;;;;;;;;;;2067967;28;19925;-87